Time;durP1;ratioP1;P1;durP2;ratioP2;P2;SDS_P1;SDS_P2;PMS_P1;PMS_P2;Temp;Humidity;BMP_temperature;BMP_pressure;BME280_temperature;BME280_humidity;BME280_pressure;Samples;Min_cycle;Max_cycle;Signal;HPM_P1;HPM_P2
2022/08/11 00:00:42;;;;;;;;;13.67;13.33;;;;;21.26;58.89;101886.77;110438;1260;18813;-50
2022/08/11 00:03:10;;;;;;;;;19.67;17.33;;;;;21.17;59.22;101886.23;110766;1258;19649;-50
2022/08/11 00:05:37;;;;;;;;;15.67;14.00;;;;;21.12;59.51;101887.30;110773;1258;22238;-50
2022/08/11 00:08:05;;;;;;;;;15.00;14.00;;;;;21.03;59.69;101878.98;110709;1258;19083;-52
2022/08/11 00:10:32;;;;;;;;;14.67;14.00;;;;;21.07;59.67;101876.82;110717;1258;20473;-51
2022/08/11 00:13:00;;;;;;;;;11.67;11.67;;;;;21.11;59.45;101881.31;110455;1260;21985;-52
2022/08/11 00:15:27;;;;;;;;;10.00;10.00;;;;;21.11;59.58;101882.98;110419;1260;18865;-51
2022/08/11 00:17:55;;;;;;;;;13.00;11.00;;;;;21.10;59.44;101880.02;110460;1261;19491;-51
2022/08/11 00:20:22;;;;;;;;;9.67;9.67;;;;;21.09;59.34;101879.77;110711;1258;18773;-51
2022/08/11 00:22:50;;;;;;;;;23.00;20.00;;;;;20.89;59.87;101875.00;110723;1258;18974;-51
2022/08/11 00:25:17;;;;;;;;;54.00;42.00;;;;;20.71;60.29;101881.63;110690;1258;22296;-51
2022/08/11 00:27:44;;;;;;;;;66.00;53.67;;;;;20.76;60.25;101877.91;110425;1260;18716;-50
2022/08/11 00:30:12;;;;;;;;;34.00;31.00;;;;;20.84;60.28;101879.84;110757;1258;18842;-51
2022/08/11 00:32:39;;;;;;;;;26.00;23.00;;;;;20.85;60.08;101879.74;110731;1258;22857;-51
2022/08/11 00:35:08;;;;;;;;;21.00;17.00;;;;;20.76;60.45;101883.85;110366;1260;18736;-50
2022/08/11 00:37:35;;;;;;;;;21.00;19.00;;;;;20.75;60.38;101881.30;110628;1258;18823;-53
2022/08/11 00:40:02;;;;;;;;;18.50;17.50;;;;;20.79;60.25;101875.80;110632;1258;19641;-50
2022/08/11 00:42:30;;;;;;;;;17.00;15.00;;;;;20.87;59.97;101879.88;110420;1260;18768;-52
2022/08/11 00:44:57;;;;;;;;;18.50;14.50;;;;;20.67;60.25;101882.42;110807;1258;18834;-51
2022/08/11 00:47:25;;;;;;;;;15.00;15.00;;;;;20.50;60.90;101883.18;110698;1258;19624;-52
2022/08/11 00:49:52;;;;;;;;;16.33;14.00;;;;;20.35;61.03;101879.30;110416;1260;18684;-50
2022/08/11 00:52:19;;;;;;;;;13.00;13.00;;;;;20.39;61.16;101877.63;110702;1258;18810;-51
2022/08/11 00:54:47;;;;;;;;;13.00;12.00;;;;;20.38;61.49;101875.77;110708;1257;19533;-51
2022/08/11 00:57:14;;;;;;;;;12.00;11.00;;;;;20.68;60.44;101876.30;110792;1258;19251;-54
2022/08/11 00:59:41;;;;;;;;;12.33;11.33;;;;;20.60;60.63;101874.19;110516;1260;18982;-51
2022/08/11 01:02:09;;;;;;;;;10.00;10.00;;;;;20.50;60.76;101876.25;110737;1258;19620;-51
2022/08/11 01:04:36;;;;;;;;;12.00;10.00;;;;;20.51;60.84;101880.34;110677;1258;22638;-51
2022/08/11 01:07:04;;;;;;;;;11.33;9.67;;;;;20.61;60.52;101879.75;110436;1260;22631;-51
2022/08/11 01:09:31;;;;;;;;;11.33;10.00;;;;;20.63;60.16;101884.04;110720;1258;19613;-52
2022/08/11 01:11:59;;;;;;;;;12.00;12.00;;;;;20.62;60.09;101885.86;110471;1260;18718;-53
2022/08/11 01:14:26;;;;;;;;;13.67;11.33;;;;;20.62;60.17;101885.48;110633;1258;18815;-48
2022/08/11 01:16:54;;;;;;;;;10.00;10.00;;;;;20.56;60.34;101887.50;110711;1258;21701;-50
2022/08/11 01:19:21;;;;;;;;;14.00;13.00;;;;;20.50;60.45;101884.28;110693;1258;18761;-50
2022/08/11 01:21:49;;;;;;;;;14.00;10.67;;;;;20.42;60.28;101882.38;110777;1258;22002;-51
2022/08/11 01:24:16;;;;;;;;;13.00;13.00;;;;;20.53;60.22;101879.33;110739;1258;19549;-51
2022/08/11 01:26:43;;;;;;;;;14.33;12.33;;;;;20.40;60.17;101881.73;110504;1260;21918;-49
2022/08/11 01:29:11;;;;;;;;;17.67;16.00;;;;;20.29;60.89;101881.65;110723;1258;18861;-51
2022/08/11 01:31:38;;;;;;;;;18.00;16.00;;;;;20.29;60.73;101877.34;110725;1258;19676;-52
2022/08/11 01:34:06;;;;;;;;;20.00;16.33;;;;;20.22;60.99;101879.03;110706;1258;18732;-49
2022/08/11 01:36:33;;;;;;;;;15.33;14.67;;;;;20.27;60.82;101882.17;110739;1258;21733;-50
2022/08/11 01:39:00;;;;;;;;;18.67;17.00;;;;;20.26;60.80;101880.52;110511;1260;19452;-51
2022/08/11 01:44:36;;;;;;;;;17.33;14.67;;;;;20.23;60.67;101876.26;110757;1258;18757;-54
2022/08/11 01:47:01;;;;;;;;;13.33;13.00;;;;;20.13;61.34;101876.18;110728;1258;19666;-50
2022/08/11 01:49:28;;;;;;;;;16.67;14.00;;;;;20.17;60.99;101872.67;110744;1258;19354;-52
2022/08/11 01:51:56;;;;;;;;;14.00;14.00;;;;;20.21;61.14;101869.38;110717;1258;18840;-51
2022/08/11 01:54:23;;;;;;;;;13.00;12.00;;;;;20.14;60.85;101868.38;110753;1258;19550;-51
2022/08/11 01:56:50;;;;;;;;;17.00;16.00;;;;;20.20;60.80;101863.70;110467;1260;18760;-50
2022/08/11 01:59:18;;;;;;;;;14.00;13.67;;;;;20.10;61.07;101858.80;110692;1258;18783;-50
2022/08/11 02:01:45;;;;;;;;;15.00;14.00;;;;;20.07;60.94;101860.02;110472;1260;19561;-52
2022/08/11 02:04:12;;;;;;;;;13.67;13.00;;;;;20.01;61.07;101858.60;110709;1259;18682;-53
2022/08/11 02:06:55;;;;;;;;;14.00;13.00;;;;;19.90;61.39;101863.05;110714;1258;21187;-52
2022/08/11 02:09:23;;;;;;;;;16.00;14.00;;;;;19.89;61.56;101862.65;110427;1260;21329;-53
2022/08/11 02:11:50;;;;;;;;;14.00;13.00;;;;;19.91;61.49;101860.27;110391;1260;18803;-52
2022/08/11 02:14:19;;;;;;;;;16.50;13.50;;;;;19.96;61.02;101861.56;110648;1258;20327;-55
2022/08/11 02:16:47;;;;;;;;;14.67;13.33;;;;;20.08;60.71;101861.86;110416;1260;22485;-53
2022/08/11 02:24:44;;;;;;;;;16.67;16.00;;;;;21.07;57.66;101862.84;110543;1258;19947;-50
2022/08/11 02:27:11;;;;;;;;;12.67;12.00;;;;;21.17;57.44;101866.23;110807;1258;22377;-50
2022/08/11 02:29:39;;;;;;;;;16.00;16.00;;;;;21.22;57.02;101868.80;110483;1260;19022;-53
2022/08/11 02:34:54;;;;;;;;;17.33;16.00;;;;;21.24;56.93;101872.94;110703;1258;18733;-51
2022/08/11 02:37:23;;;;;;;;;20.00;14.00;;;;;21.29;56.62;101868.71;110715;1257;19008;-51
2022/08/11 02:39:50;;;;;;;;;15.33;14.00;;;;;21.31;56.42;101875.44;110461;1260;20019;-51
2022/08/11 02:42:23;;;;;;;;;15.00;13.67;;;;;21.30;56.67;101879.08;110731;1258;18712;-51
2022/08/11 02:44:51;;;;;;;;;14.67;13.67;;;;;21.30;56.42;101873.71;110437;1260;22695;-49
2022/08/11 02:47:18;;;;;;;;;14.00;14.00;;;;;21.32;56.17;101874.05;110621;1258;19468;-52
2022/08/11 02:52:30;;;;;;;;;13.00;12.50;;;;;21.21;56.13;101890.94;110415;1260;18835;-48
2022/08/11 02:54:57;;;;;;;;;14.33;13.00;;;;;21.13;56.47;101886.02;110487;1260;19367;-54
2022/08/11 02:57:25;;;;;;;;;15.00;14.33;;;;;21.12;56.38;101892.05;110766;1258;22336;-54
2022/08/11 02:59:52;;;;;;;;;14.67;13.33;;;;;21.12;56.39;101888.30;110738;1258;18777;-49
2022/08/11 03:02:20;;;;;;;;;10.00;10.00;;;;;21.15;56.35;101890.07;110689;1258;22991;-48
2022/08/11 03:04:48;;;;;;;;;17.33;15.00;;;;;21.16;56.00;101886.81;110747;1258;22229;-51
2022/08/11 03:07:16;;;;;;;;;21.33;17.00;;;;;21.12;56.14;101891.77;110440;1260;22999;-49
2022/08/11 03:09:43;;;;;;;;;18.67;16.67;;;;;21.10;56.22;101895.23;110581;1259;22383;-51
2022/08/11 03:17:39;;;;;;;;;18.00;16.33;;;;;21.11;56.08;101892.30;110114;1265;19853;-50
2022/08/11 03:20:07;;;;;;;;;15.00;13.33;;;;;21.11;56.00;101889.14;110230;1264;22124;-50
2022/08/11 03:22:36;;;;;;;;;12.33;11.00;;;;;21.08;56.38;101890.13;110122;1265;18792;-50
2022/08/11 03:25:03;;;;;;;;;15.33;13.67;;;;;21.11;56.37;101892.82;110174;1265;19549;-51
2022/08/11 03:27:31;;;;;;;;;14.00;14.00;;;;;21.13;56.25;101893.05;110238;1264;18771;-51
2022/08/11 03:29:58;;;;;;;;;14.00;13.67;;;;;21.13;56.41;101895.16;110273;1264;22550;-51
2022/08/11 03:32:25;;;;;;;;;17.00;14.67;;;;;21.13;56.52;101896.77;110221;1264;19635;-51
2022/08/11 03:34:53;;;;;;;;;14.00;14.00;;;;;21.11;56.85;101900.10;110224;1264;18678;-50
2022/08/11 03:40:01;;;;;;;;;18.00;17.00;;;;;21.11;56.53;101902.32;110242;1264;19682;-52
2022/08/11 03:42:29;;;;;;;;;17.67;14.67;;;;;21.08;56.84;101904.34;110236;1264;22853;-51
2022/08/11 03:44:56;;;;;;;;;17.67;15.33;;;;;21.05;56.62;101901.51;110258;1264;18891;-51
2022/08/11 03:47:23;;;;;;;;;21.00;18.50;;;;;21.08;56.78;101901.09;110221;1264;19559;-51
2022/08/11 03:49:51;;;;;;;;;20.67;19.33;;;;;21.09;56.69;101904.27;110220;1264;22663;-50
2022/08/11 03:52:18;;;;;;;;;20.00;18.00;;;;;21.06;56.78;101902.69;110386;1258;18789;-51
2022/08/11 03:54:45;;;;;;;;;18.33;17.00;;;;;21.08;56.72;101906.34;110569;1259;21215;-51
2022/08/11 03:57:13;;;;;;;;;16.67;13.00;;;;;21.05;56.63;101903.41;110488;1260;21965;-50
2022/08/11 03:59:41;;;;;;;;;14.00;13.50;;;;;20.94;56.74;101904.86;110768;1258;18844;-50
2022/08/11 04:02:08;;;;;;;;;14.50;13.50;;;;;20.99;56.97;101903.40;110510;1260;19549;-50
2022/08/11 04:04:36;;;;;;;;;13.00;12.00;;;;;20.99;56.82;101903.75;110685;1258;19090;-51
2022/08/11 04:07:03;;;;;;;;;14.00;13.67;;;;;21.01;56.64;101897.61;110585;1258;21853;-49
2022/08/11 04:09:30;;;;;;;;;13.67;13.00;;;;;21.01;56.54;101897.57;110381;1260;19376;-53
2022/08/11 04:11:58;;;;;;;;;14.00;13.00;;;;;20.95;56.63;101898.16;110481;1260;18880;-50
2022/08/11 04:17:10;;;;;;;;;12.00;12.00;;;;;20.88;56.86;101905.43;110804;1258;19693;-51
2022/08/11 04:19:37;;;;;;;;;13.00;12.00;;;;;20.94;56.67;101906.13;110467;1260;18787;-50
2022/08/11 04:22:06;;;;;;;;;9.33;9.33;;;;;20.96;56.60;101905.36;110718;1258;18809;-49
2022/08/11 04:24:35;;;;;;;;;13.33;12.00;;;;;20.97;56.66;101908.58;109318;1258;1851271;-51
2022/08/11 04:27:02;;;;;;;;;13.00;12.67;;;;;21.01;56.26;101906.18;110777;1258;22817;-51
2022/08/11 04:29:30;;;;;;;;;12.00;12.00;;;;;21.09;56.22;101910.79;110686;1258;21289;-50
2022/08/11 04:31:57;;;;;;;;;14.00;12.67;;;;;21.13;56.00;101913.70;110461;1260;19576;-50
2022/08/11 04:34:24;;;;;;;;;13.00;13.00;;;;;21.07;56.30;101913.55;110759;1258;18726;-51
2022/08/11 04:39:36;;;;;;;;;17.00;14.67;;;;;20.99;56.40;101909.80;110739;1258;19700;-51
2022/08/11 04:44:54;;;;;;;;;37.00;34.67;;;;;20.96;56.62;101919.71;110242;1264;22313;-55
2022/08/11 05:03:47;;;;;;;;;25.00;23.00;;;;;20.29;59.63;101920.86;110101;1264;19600;-51
2022/08/11 05:06:14;;;;;;;;;29.33;28.00;;;;;20.18;60.11;101924.86;110110;1264;20122;-49
2022/08/11 05:08:41;;;;;;;;;26.33;21.00;;;;;19.92;60.70;101928.50;110030;1262;21322;-50
2022/08/11 05:11:09;;;;;;;;;32.00;26.67;;;;;20.03;60.85;101927.57;110207;1263;19532;-52
2022/08/11 05:35:36;;;;;;;;;13.33;13.33;;;;;22.35;55.54;101913.57;110715;1258;19694;-51
2022/08/11 05:57:17;;;;;;;;;15.00;15.00;;;;;23.06;54.57;101920.36;110667;1258;18795;-48
2022/08/11 05:59:44;;;;;;;;;14.33;13.67;;;;;23.11;54.07;101919.55;110708;1258;19532;-51
2022/08/11 06:02:12;;;;;;;;;14.00;14.00;;;;;23.14;53.78;101921.46;110676;1258;18749;-53
2022/08/11 06:04:39;;;;;;;;;14.00;14.00;;;;;23.03;53.62;101923.59;110711;1258;19014;-50
2022/08/11 06:07:08;;;;;;;;;18.67;16.00;;;;;22.93;53.96;101922.77;110705;1258;19765;-52
2022/08/11 06:09:35;;;;;;;;;15.67;15.00;;;;;22.79;54.17;101926.23;110430;1259;18774;-51
2022/08/11 06:12:03;;;;;;;;;12.50;12.00;;;;;22.74;54.28;101930.07;110454;1260;18881;-51
2022/08/11 06:14:30;;;;;;;;;15.00;14.67;;;;;22.78;54.45;101929.51;110551;1258;19553;-50
2022/08/11 06:16:59;;;;;;;;;15.00;15.00;;;;;22.72;54.66;101927.02;110672;1258;18692;-49
2022/08/11 06:19:26;;;;;;;;;18.00;15.33;;;;;22.66;55.28;101923.22;110262;1259;18741;-50
2022/08/11 06:21:53;;;;;;;;;18.50;15.00;;;;;22.67;55.59;101923.86;110596;1258;19633;-49
2022/08/11 06:24:21;;;;;;;;;16.00;14.33;;;;;22.75;55.45;101924.88;110253;1260;22329;-52
2022/08/11 06:26:49;;;;;;;;;14.67;12.67;;;;;22.77;55.24;101927.77;110429;1260;19144;-52
2022/08/11 06:29:18;;;;;;;;;15.00;14.00;;;;;22.68;55.71;101927.98;110680;1258;27625;-51
2022/08/11 06:31:46;;;;;;;;;14.50;12.00;;;;;22.58;55.72;101925.38;110691;1258;18929;-52
2022/08/11 06:34:13;;;;;;;;;16.00;15.50;;;;;22.69;54.19;101923.28;110584;1258;18822;-51
2022/08/11 06:36:41;;;;;;;;;11.00;11.00;;;;;22.82;53.65;101924.09;110588;1258;19606;-54
2022/08/11 06:39:08;;;;;;;;;14.67;14.00;;;;;22.65;53.55;101922.83;110482;1260;20225;-50
2022/08/11 06:41:35;;;;;;;;;14.67;13.33;;;;;22.70;53.50;101925.52;110784;1259;18826;-50
2022/08/11 06:44:04;;;;;;;;;14.00;11.00;;;;;22.80;53.06;101923.64;110637;1258;19688;-50
2022/08/11 06:46:32;;;;;;;;;12.00;12.00;;;;;22.73;52.97;101924.04;110431;1259;18845;-51
2022/08/11 06:48:59;;;;;;;;;12.00;12.00;;;;;22.96;52.39;101923.75;110567;1258;22756;-49
2022/08/11 06:51:27;;;;;;;;;12.33;11.00;;;;;23.16;51.99;101921.27;110633;1258;19680;-54
2022/08/11 06:53:55;;;;;;;;;14.67;13.00;;;;;23.31;51.65;101923.51;110467;1260;18675;-49
2022/08/11 07:01:53;;;;;;;;;11.50;11.00;;;;;23.54;51.56;101912.02;110615;1258;22670;-55
2022/08/11 07:04:21;;;;;;;;;14.33;12.00;;;;;23.65;51.46;101911.52;110374;1260;19076;-51
2022/08/11 07:15:40;;;;;;;;;11.00;11.00;;;;;23.80;50.94;101907.08;110669;1259;19488;-50
2022/08/11 07:28:54;;;;;;;;;14.00;14.00;;;;;24.09;50.12;101903.98;110659;1258;23289;-52
2022/08/11 07:28:56;;;;;;;;;12.33;11.00;;;;;24.30;49.98;101886.70;110134;1264;22563;-54
2022/08/11 07:31:24;;;;;;;;;12.33;12.33;;;;;24.53;50.05;101886.27;110151;1263;19825;-54
2022/08/11 07:33:51;;;;;;;;;11.00;11.00;;;;;24.54;50.20;101888.11;110037;1265;23646;-50
2022/08/11 07:36:18;;;;;;;;;12.50;11.50;;;;;24.68;50.22;101887.80;110070;1265;22166;-50
2022/08/11 07:38:49;;;;;;;;;11.50;10.00;;;;;24.86;50.25;101888.13;110069;1264;19585;-49
2022/08/11 07:41:16;;;;;;;;;15.00;13.67;;;;;24.95;49.95;101891.88;110104;1263;22889;-51
2022/08/11 07:43:44;;;;;;;;;13.00;12.67;;;;;24.84;50.07;101892.77;110173;1264;19481;-54
2022/08/11 07:54:25;;;;;;;;;13.00;12.00;;;;;25.27;48.56;101890.36;110201;1264;19580;-52
2022/08/11 07:56:53;;;;;;;;;12.67;12.33;;;;;25.33;48.91;101893.28;110029;1264;18875;-52
2022/08/11 08:18:34;;;;;;;;;10.50;9.00;;;;;24.92;46.22;101886.13;110622;1258;19553;-49
2022/08/11 08:21:10;;;;;;;;;7.00;7.00;;;;;24.91;46.79;101885.69;110431;1260;18711;-51
2022/08/11 08:23:38;;;;;;;;;11.00;10.67;;;;;24.94;47.15;101885.56;110663;1258;18984;-53
2022/08/11 08:26:57;;;;;;;;;9.67;9.00;;;;;25.20;46.37;101884.52;110692;1258;19567;-50
2022/08/11 08:28:52;;;;;;;;;11.00;9.33;;;;;25.43;45.40;101884.47;110387;1260;18746;-51
2022/08/11 08:31:20;;;;;;;;;11.00;9.33;;;;;25.42;45.35;101884.68;110333;1261;18650;-53
2022/08/11 08:33:47;;;;;;;;;10.00;8.50;;;;;25.30;44.59;101880.25;110362;1260;19522;-51
2022/08/11 08:36:15;;;;;;;;;7.67;7.00;;;;;25.20;44.04;101880.86;110555;1258;18851;-52
2022/08/11 08:38:43;;;;;;;;;8.50;8.00;;;;;25.32;43.36;101877.54;110308;1260;22968;-51
2022/08/11 08:41:10;;;;;;;;;9.00;9.00;;;;;25.69;43.81;101873.51;110338;1261;19548;-50
2022/08/11 08:43:38;;;;;;;;;9.00;9.00;;;;;25.97;43.53;101872.73;110336;1261;18595;-50
2022/08/11 08:46:05;;;;;;;;;8.67;8.67;;;;;25.92;42.72;101873.52;110304;1260;18788;-52
2022/08/11 08:48:33;;;;;;;;;11.00;8.67;;;;;25.79;42.42;101877.27;110398;1259;19543;-51
2022/08/11 08:53:45;;;;;;;;;7.00;6.67;;;;;25.75;41.93;101874.73;110427;1258;18868;-52
2022/08/11 08:56:13;;;;;;;;;8.67;8.67;;;;;25.89;42.52;101867.29;110497;1258;19535;-51
2022/08/11 08:58:40;;;;;;;;;7.00;7.00;;;;;26.00;43.05;101869.92;110490;1258;18525;-53
2022/08/11 09:01:07;;;;;;;;;7.00;7.00;;;;;25.76;42.53;101874.52;110676;1258;18728;-50
2022/08/11 09:03:35;;;;;;;;;8.00;8.00;;;;;25.70;42.07;101874.20;110728;1258;21017;-51
2022/08/11 09:06:02;;;;;;;;;8.33;8.33;;;;;25.85;42.49;101870.52;110481;1260;18809;-51
2022/08/11 09:08:29;;;;;;;;;7.00;7.00;;;;;26.14;42.79;101864.77;110423;1260;18861;-52
2022/08/11 09:13:53;;;;;;;;;8.67;8.67;;;;;26.09;42.14;101861.17;110230;1264;22256;-50
2022/08/11 09:16:20;;;;;;;;;8.33;8.00;;;;;25.87;41.85;101860.16;110237;1264;18896;-51
2022/08/11 09:18:48;;;;;;;;;7.00;7.00;;;;;25.87;41.80;101860.21;110160;1264;20438;-51
2022/08/11 09:21:15;;;;;;;;;8.50;8.00;;;;;26.06;41.43;101863.41;110210;1265;18660;-50
2022/08/11 09:29:12;;;;;;;;;9.67;9.33;;;;;26.21;41.27;101857.63;110153;1264;18544;-51
2022/08/11 09:31:39;;;;;;;;;9.00;8.00;;;;;26.21;41.46;101858.77;110113;1265;18794;-51
2022/08/11 09:34:07;;;;;;;;;6.33;6.33;;;;;26.02;41.71;101857.61;110114;1264;22076;-52
2022/08/11 09:42:04;;;;;;;;;9.00;9.00;;;;;25.79;41.17;101847.70;110089;1264;19825;-51
2022/08/11 09:44:48;;;;;;;;;7.00;7.00;;;;;25.76;41.26;101845.19;109931;1264;18681;-49
2022/08/11 09:47:16;;;;;;;;;7.00;7.00;;;;;25.78;41.06;101844.15;110156;1265;18612;-50
2022/08/11 09:49:43;;;;;;;;;8.50;8.00;;;;;25.67;41.26;101847.77;110338;1261;19589;-53
2022/08/11 09:52:13;;;;;;;;;7.00;7.00;;;;;25.60;41.86;101846.59;110680;1258;22843;-50
2022/08/11 09:54:40;;;;;;;;;7.00;6.67;;;;;25.68;41.92;101851.95;110669;1258;20509;-50
2022/08/11 09:59:53;;;;;;;;;8.00;7.00;;;;;25.66;42.02;101846.78;110612;1258;18479;-55
2022/08/11 10:02:20;;;;;;;;;8.00;8.00;;;;;25.55;42.60;101844.25;110586;1259;19425;-51
2022/08/11 10:04:48;;;;;;;;;6.50;6.50;;;;;25.52;42.63;101833.64;110456;1259;19587;-51
2022/08/11 10:07:15;;;;;;;;;6.67;6.33;;;;;25.44;42.86;101838.73;110668;1258;18441;-52
2022/08/11 10:09:43;;;;;;;;;8.00;7.33;;;;;25.46;42.43;101832.88;110446;1260;18751;-50
2022/08/11 10:12:11;;;;;;;;;8.33;8.00;;;;;25.38;42.67;101827.96;110701;1258;19482;-52
2022/08/11 10:17:23;;;;;;;;;7.00;7.00;;;;;25.37;42.83;101820.01;110701;1258;18749;-50
2022/08/11 10:19:50;;;;;;;;;7.00;7.00;;;;;25.46;42.70;101821.11;110399;1261;19562;-50
2022/08/11 10:27:49;;;;;;;;;6.00;6.00;;;;;25.44;42.10;101819.89;110692;1258;19747;-52
2022/08/11 10:35:46;;;;;;;;;8.00;7.00;;;;;25.36;41.34;101808.11;110592;1258;19402;-51
2022/08/11 10:38:14;;;;;;;;;8.00;8.00;;;;;25.31;41.95;101803.92;110686;1258;18480;-49
2022/08/11 10:40:42;;;;;;;;;9.00;8.00;;;;;25.49;41.84;101801.20;110238;1259;21827;-52
2022/08/11 10:43:12;;;;;;;;;9.33;7.33;;;;;25.63;41.70;101798.95;110397;1261;19632;-50
2022/08/11 10:48:24;;;;;;;;;6.67;6.67;;;;;25.37;40.27;101800.66;110813;1258;18783;-50
2022/08/11 10:59:08;;;;;;;;;6.00;6.00;;;;;25.29;40.80;101794.81;110670;1258;19599;-51
2022/08/11 11:01:36;;;;;;;;;7.00;6.00;;;;;25.19;40.81;101795.72;110407;1261;18393;-52
2022/08/11 11:04:03;;;;;;;;;4.67;4.67;;;;;25.16;40.46;101787.21;110556;1258;22233;-50
2022/08/11 11:06:30;;;;;;;;;6.67;6.67;;;;;25.03;40.77;101787.58;110626;1259;19621;-49
2022/08/11 11:08:58;;;;;;;;;6.67;6.67;;;;;25.08;40.57;101789.24;110642;1258;18752;-49
2022/08/11 11:17:54;;;;;;;;;8.00;7.00;;;;;25.06;40.98;101787.40;110541;1259;18968;-50
2022/08/11 11:19:45;;;;;;;;;11.67;11.00;;;;;25.26;44.66;101774.80;110661;1258;18738;-50
2022/08/11 11:24:57;;;;;;;;;11.00;11.00;;;;;25.36;44.86;101768.38;110527;1259;18766;-51
2022/08/11 11:27:25;;;;;;;;;8.00;8.00;;;;;25.46;44.33;101767.69;110763;1259;18788;-51
2022/08/11 11:29:53;;;;;;;;;8.33;7.67;;;;;25.51;42.88;101763.23;110698;1258;19603;-50
2022/08/11 11:32:21;;;;;;;;;8.33;7.67;;;;;25.53;42.78;101761.73;110670;1258;22381;-50
2022/08/11 11:34:48;;;;;;;;;8.00;8.00;;;;;25.48;42.28;101758.68;110618;1258;19317;-51
2022/08/11 11:37:17;;;;;;;;;8.50;8.50;;;;;25.45;42.31;101759.39;110491;1258;19491;-50
2022/08/11 11:39:44;;;;;;;;;7.00;7.00;;;;;25.37;41.98;101760.76;110468;1260;18543;-50
2022/08/11 11:42:11;;;;;;;;;8.00;7.33;;;;;25.41;41.17;101757.71;110510;1258;18830;-51
2022/08/11 11:44:39;;;;;;;;;8.00;8.00;;;;;25.42;41.05;101755.34;110631;1258;19508;-51
2022/08/11 11:47:06;;;;;;;;;7.67;6.33;;;;;25.44;41.09;101745.86;110408;1260;21677;-51
2022/08/11 11:49:38;;;;;;;;;7.67;6.67;;;;;25.47;41.18;101744.15;110605;1258;18757;-50
2022/08/11 11:52:05;;;;;;;;;8.67;8.00;;;;;25.44;41.51;101746.34;110604;1258;19516;-48
2022/08/11 11:54:32;;;;;;;;;7.67;7.67;;;;;25.39;41.03;101746.21;110275;1261;22420;-51
2022/08/11 12:01:14;;;;;;;;;6.67;6.00;;;;;25.31;39.96;101736.14;110413;1259;18811;-53
2022/08/11 12:02:32;;;;;;;;;8.00;8.00;;;;;25.27;40.45;101732.65;110286;1260;18513;-50
2022/08/11 12:05:00;;;;;;;;;7.00;7.00;;;;;25.28;40.64;101734.52;110421;1260;18810;-54
2022/08/11 12:10:13;;;;;;;;;6.00;6.00;;;;;25.31;40.64;101735.08;110603;1258;18493;-51
2022/08/11 12:15:25;;;;;;;;;7.67;7.00;;;;;25.29;40.67;101730.36;110610;1258;19527;-50
2022/08/11 12:17:53;;;;;;;;;6.67;6.67;;;;;25.28;40.56;101729.96;110638;1258;22231;-50
2022/08/11 12:20:21;;;;;;;;;6.67;6.00;;;;;25.39;39.83;101726.95;110708;1258;22843;-51
2022/08/11 12:28:18;;;;;;;;;9.00;8.00;;;;;25.30;40.34;101708.29;110501;1258;19298;-50
2022/08/11 12:30:46;;;;;;;;;8.67;8.33;;;;;25.35;40.72;101705.33;110695;1258;20864;-52
2022/08/11 12:33:14;;;;;;;;;23.50;23.00;;;;;25.37;40.22;101702.24;110441;1260;19657;-51
2022/08/11 12:35:41;;;;;;;;;148.75;135.75;;;;;25.24;38.95;101698.05;110414;1260;18885;-50
2022/08/11 12:38:09;;;;;;;;;125.00;108.00;;;;;25.35;38.92;101698.50;110355;1261;19487;-50
2022/08/11 12:46:06;;;;;;;;;37.00;36.00;;;;;25.57;38.95;101688.73;110642;1258;19495;-52
2022/08/11 12:54:03;;;;;;;;;17.33;16.00;;;;;25.50;38.77;101666.20;110730;1258;19539;-52
2022/08/11 13:04:56;;;;;;;;;8.00;8.00;;;;;25.65;37.82;101663.30;110613;1259;19126;-51
2022/08/11 13:07:24;;;;;;;;;10.67;9.00;;;;;25.69;37.77;101660.00;110535;1258;18666;-50
2022/08/11 13:09:51;;;;;;;;;9.33;9.00;;;;;25.66;38.15;101659.36;110331;1260;19443;-53
2022/08/11 13:15:04;;;;;;;;;11.67;9.67;;;;;25.71;38.79;101651.13;110597;1257;18778;-52
2022/08/11 13:17:33;;;;;;;;;7.33;7.00;;;;;25.77;39.45;101646.62;110434;1258;19716;-49
2022/08/11 13:20:01;;;;;;;;;8.33;8.33;;;;;25.88;39.65;101642.73;111567;1258;19783;-52
2022/08/11 13:22:29;;;;;;;;;8.00;7.67;;;;;26.02;38.81;101645.38;110266;1258;22246;-51
2022/08/11 13:24:56;;;;;;;;;6.33;6.33;;;;;26.03;38.22;101639.87;110257;1261;19955;-50
2022/08/11 13:27:23;;;;;;;;;7.00;7.00;;;;;25.86;37.31;101634.13;110418;1260;22243;-51
2022/08/11 13:31:09;;;;;;;;;8.50;7.50;;;;;25.92;38.13;101634.71;110483;1258;18654;-51
2022/08/11 13:32:38;;;;;;;;;8.00;8.00;;;;;25.97;38.20;101633.56;110427;1258;20904;-51
2022/08/11 13:35:06;;;;;;;;;7.33;7.33;;;;;26.00;39.10;101637.91;110500;1258;18341;-52
2022/08/11 13:37:34;;;;;;;;;9.00;8.00;;;;;25.98;39.49;101639.59;110539;1258;18653;-51
2022/08/11 13:40:01;;;;;;;;;7.50;7.50;;;;;25.93;39.16;101635.18;110397;1259;19563;-50
2022/08/11 13:42:28;;;;;;;;;7.00;7.00;;;;;25.86;38.73;101633.66;110662;1258;18618;-53
2022/08/11 13:44:56;;;;;;;;;7.00;7.00;;;;;25.80;38.25;101632.77;110581;1258;18936;-51
2022/08/11 13:47:24;;;;;;;;;8.00;7.00;;;;;25.83;37.44;101632.81;110250;1260;22080;-49
2022/08/11 13:49:51;;;;;;;;;6.33;6.33;;;;;25.83;36.68;101630.15;110657;1258;18623;-52
2022/08/11 13:52:19;;;;;;;;;6.00;6.00;;;;;25.92;35.96;101632.89;110615;1258;18773;-52
2022/08/11 13:54:46;;;;;;;;;8.00;8.00;;;;;25.91;36.42;101630.98;110355;1260;19763;-50
2022/08/11 13:57:14;;;;;;;;;7.33;7.33;;;;;25.83;36.89;101627.07;110624;1258;24088;-50
2022/08/11 13:59:42;;;;;;;;;11.00;9.00;;;;;25.78;37.16;101622.81;110337;1260;18738;-52
2022/08/11 14:02:09;;;;;;;;;6.67;6.33;;;;;25.78;36.62;101625.19;110210;1260;19626;-51
2022/08/11 14:04:38;;;;;;;;;7.00;6.33;;;;;25.79;36.47;101621.30;110302;1260;18736;-51
2022/08/11 14:07:05;;;;;;;;;6.67;6.00;;;;;25.74;36.73;101616.80;110153;1259;23701;-49
2022/08/11 14:09:32;;;;;;;;;6.50;6.50;;;;;25.74;36.80;101618.82;110462;1257;22914;-51
2022/08/11 14:14:45;;;;;;;;;7.33;7.00;;;;;25.80;36.30;101606.11;110618;1258;19265;-51
2022/08/11 14:17:12;;;;;;;;;7.00;7.00;;;;;25.79;36.24;101606.48;110670;1258;19516;-50
2022/08/11 14:19:40;;;;;;;;;7.00;7.00;;;;;25.72;36.03;101606.34;110389;1259;20671;-53
2022/08/11 14:22:07;;;;;;;;;7.00;6.50;;;;;25.67;36.41;101606.95;110603;1259;18724;-52
2022/08/11 14:24:34;;;;;;;;;8.00;7.00;;;;;25.63;36.41;101606.59;110764;1258;19414;-49
2022/08/11 14:27:02;;;;;;;;;8.00;7.67;;;;;25.58;35.98;101603.14;110489;1259;23718;-52
2022/08/11 14:29:31;;;;;;;;;7.00;7.00;;;;;25.55;36.02;101608.42;110521;1259;18760;-49
2022/08/11 14:31:58;;;;;;;;;6.00;6.00;;;;;25.53;35.88;101608.38;110477;1259;24107;-54
2022/08/11 14:34:26;;;;;;;;;6.00;6.00;;;;;25.53;35.58;101611.05;110591;1258;18492;-50
2022/08/11 14:36:53;;;;;;;;;8.00;7.00;;;;;25.63;35.15;101607.52;110411;1260;18830;-49
2022/08/11 14:39:21;;;;;;;;;7.67;7.67;;;;;25.64;35.03;101607.77;110446;1261;19596;-50
2022/08/11 14:47:18;;;;;;;;;8.00;7.00;;;;;25.52;36.17;101607.02;110705;1258;24188;-52
2022/08/11 14:49:45;;;;;;;;;8.00;8.00;;;;;25.49;36.21;101604.02;110667;1258;20953;-54
2022/08/11 14:52:14;;;;;;;;;6.00;6.00;;;;;25.55;36.04;101598.62;110559;1258;23577;-51
2022/08/11 14:57:27;;;;;;;;;9.00;8.33;;;;;25.56;36.09;101593.17;110664;1258;18713;-50
2022/08/11 14:59:54;;;;;;;;;7.00;7.00;;;;;25.51;35.85;101593.78;110709;1258;20149;-49
2022/08/11 15:05:07;;;;;;;;;8.33;7.67;;;;;25.44;35.56;101591.87;110610;1258;23414;-50
2022/08/11 15:07:34;;;;;;;;;7.67;7.00;;;;;25.41;35.25;101594.98;110399;1261;19773;-54
2022/08/11 15:10:02;;;;;;;;;7.00;7.00;;;;;25.45;34.63;101589.27;110446;1260;19803;-51